sensor_id;sensor_type;location;lat;lon;timestamp;pressure;altitude;pressure_sealevel;temperature;humidity
23241;BME280;11789;53.482;9.862;2022-07-05T00:00:55;102011.28;;;14.90;80.47
23241;BME280;11789;53.482;9.862;2022-07-05T00:03:21;102014.75;;;14.93;80.48
23241;BME280;11789;53.482;9.862;2022-07-05T00:05:46;102014.75;;;14.95;80.47
23241;BME280;11789;53.482;9.862;2022-07-05T00:08:12;102016.50;;;14.96;80.38
23241;BME280;11789;53.482;9.862;2022-07-05T00:10:37;102016.50;;;14.91;80.28
23241;BME280;11789;53.482;9.862;2022-07-05T00:13:04;102013.91;;;14.88;80.27
23241;BME280;11789;53.482;9.862;2022-07-05T00:15:30;102006.09;;;14.87;80.34
23241;BME280;11789;53.482;9.862;2022-07-05T00:17:55;102011.31;;;14.85;80.48
23241;BME280;11789;53.482;9.862;2022-07-05T00:20:21;102013.91;;;14.87;80.34
23241;BME280;11789;53.482;9.862;2022-07-05T00:22:46;102010.44;;;14.86;80.21
23241;BME280;11789;53.482;9.862;2022-07-05T00:25:12;102016.50;;;14.87;80.18
23241;BME280;11789;53.482;9.862;2022-07-05T00:27:38;102011.28;;;14.84;80.15
23241;BME280;11789;53.482;9.862;2022-07-05T00:30:05;102017.38;;;14.83;80.09
23241;BME280;11789;53.482;9.862;2022-07-05T00:32:30;102014.78;;;14.81;80.15
23241;BME280;11789;53.482;9.862;2022-07-05T00:34:56;102015.66;;;14.75;80.21
23241;BME280;11789;53.482;9.862;2022-07-05T00:37:21;102008.69;;;14.68;80.27
23241;BME280;11789;53.482;9.862;2022-07-05T00:39:47;102005.22;;;14.72;80.15
23241;BME280;11789;53.482;9.862;2022-07-05T00:42:12;102011.28;;;14.68;80.38
23241;BME280;11789;53.482;9.862;2022-07-05T00:44:39;102015.59;;;14.65;80.27
23241;BME280;11789;53.482;9.862;2022-07-05T00:47:11;102013.88;;;14.59;80.54
23241;BME280;11789;53.482;9.862;2022-07-05T00:49:38;102011.28;;;14.56;80.81
23241;BME280;11789;53.482;9.862;2022-07-05T00:52:04;102016.50;;;14.61;80.78
23241;BME280;11789;53.482;9.862;2022-07-05T00:54:33;102010.41;;;14.65;80.56
23241;BME280;11789;53.482;9.862;2022-07-05T00:57:02;102013.00;;;14.63;80.50
23241;BME280;11789;53.482;9.862;2022-07-05T00:59:28;102013.00;;;14.59;80.28
23241;BME280;11789;53.482;9.862;2022-07-05T01:01:54;102013.88;;;14.53;80.31
23241;BME280;11789;53.482;9.862;2022-07-05T01:04:20;102010.41;;;14.51;80.45
23241;BME280;11789;53.482;9.862;2022-07-05T01:06:48;102008.63;;;14.47;80.73
23241;BME280;11789;53.482;9.862;2022-07-05T01:09:15;102015.53;;;14.39;80.98
23241;BME280;11789;53.482;9.862;2022-07-05T01:11:45;102008.59;;;14.39;81.21
23241;BME280;11789;53.482;9.862;2022-07-05T01:14:16;102010.38;;;14.40;81.33
23241;BME280;11789;53.482;9.862;2022-07-05T01:16:42;102018.16;;;14.37;81.52
23241;BME280;11789;53.482;9.862;2022-07-05T01:19:10;102006.87;;;14.34;81.57
23241;BME280;11789;53.482;9.862;2022-07-05T01:21:53;102011.22;;;14.35;81.42
23241;BME280;11789;53.482;9.862;2022-07-05T01:24:19;102014.66;;;14.29;81.49
23241;BME280;11789;53.482;9.862;2022-07-05T01:26:47;102017.25;;;14.27;81.65
23241;BME280;11789;53.482;9.862;2022-07-05T01:29:13;102011.22;;;14.30;81.66
23241;BME280;11789;53.482;9.862;2022-07-05T01:31:40;102012.06;;;14.24;81.89
23241;BME280;11789;53.482;9.862;2022-07-05T01:34:06;102007.69;;;14.23;82.10
23241;BME280;11789;53.482;9.862;2022-07-05T01:36:33;102011.19;;;14.22;82.61
23241;BME280;11789;53.482;9.862;2022-07-05T01:39:00;102012.91;;;14.22;82.73
23241;BME280;11789;53.482;9.862;2022-07-05T01:41:25;102006.00;;;14.19;82.86
23241;BME280;11789;53.482;9.862;2022-07-05T01:43:51;102002.50;;;14.20;82.57
23241;BME280;11789;53.482;9.862;2022-07-05T01:46:16;101998.19;;;14.19;82.51
23241;BME280;11789;53.482;9.862;2022-07-05T01:48:45;102002.50;;;14.17;82.54
23241;BME280;11789;53.482;9.862;2022-07-05T01:51:18;102007.69;;;14.16;82.56
23241;BME280;11789;53.482;9.862;2022-07-05T01:53:49;102002.47;;;14.11;82.89
23241;BME280;11789;53.482;9.862;2022-07-05T01:56:17;102007.66;;;14.08;82.90
23241;BME280;11789;53.482;9.862;2022-07-05T01:58:43;102004.22;;;14.06;82.96
23241;BME280;11789;53.482;9.862;2022-07-05T02:01:09;102008.53;;;14.06;82.86
23241;BME280;11789;53.482;9.862;2022-07-05T02:03:36;102003.34;;;14.07;82.87
23241;BME280;11789;53.482;9.862;2022-07-05T02:06:01;102003.34;;;14.04;83.00
23241;BME280;11789;53.482;9.862;2022-07-05T02:08:30;102003.34;;;14.04;82.95
23241;BME280;11789;53.482;9.862;2022-07-05T02:10:56;101997.25;;;13.96;83.39
23241;BME280;11789;53.482;9.862;2022-07-05T02:13:22;101994.62;;;13.96;83.55
23241;BME280;11789;53.482;9.862;2022-07-05T02:15:48;101998.09;;;13.96;83.54
23241;BME280;11789;53.482;9.862;2022-07-05T02:18:14;101993.78;;;13.95;83.64
23241;BME280;11789;53.482;9.862;2022-07-05T02:20:40;102002.44;;;14.02;83.66
23241;BME280;11789;53.482;9.862;2022-07-05T02:23:06;102005.06;;;14.02;83.44
23241;BME280;11789;53.482;9.862;2022-07-05T02:25:32;102008.53;;;14.04;83.16
23241;BME280;11789;53.482;9.862;2022-07-05T02:27:58;102005.03;;;13.97;82.96
23241;BME280;11789;53.482;9.862;2022-07-05T02:30:24;102011.09;;;13.96;83.03
23241;BME280;11789;53.482;9.862;2022-07-05T02:32:49;102016.28;;;13.98;83.10
23241;BME280;11789;53.482;9.862;2022-07-05T02:35:15;102018.06;;;14.00;83.06
23241;BME280;11789;53.482;9.862;2022-07-05T02:37:40;102018.88;;;13.93;83.14
23241;BME280;11789;53.482;9.862;2022-07-05T02:40:11;102020.59;;;13.87;83.30
23241;BME280;11789;53.482;9.862;2022-07-05T02:42:37;102016.28;;;13.90;83.58
23241;BME280;11789;53.482;9.862;2022-07-05T02:45:04;102021.47;;;13.90;83.72
23241;BME280;11789;53.482;9.862;2022-07-05T02:47:31;102023.22;;;13.91;83.62
23241;BME280;11789;53.482;9.862;2022-07-05T02:50:10;102014.53;;;13.85;83.89
23241;BME280;11789;53.482;9.862;2022-07-05T02:52:36;102026.66;;;13.86;83.80
23241;BME280;11789;53.482;9.862;2022-07-05T02:55:05;102025.75;;;13.84;83.73
23241;BME280;11789;53.482;9.862;2022-07-05T02:57:31;102028.38;;;13.82;83.66
23241;BME280;11789;53.482;9.862;2022-07-05T02:59:57;102024.06;;;13.84;83.46
23241;BME280;11789;53.482;9.862;2022-07-05T03:02:23;102023.16;;;13.82;83.41
23241;BME280;11789;53.482;9.862;2022-07-05T03:04:49;102017.09;;;13.83;83.28
23241;BME280;11789;53.482;9.862;2022-07-05T03:07:14;102024.94;;;13.85;82.98
23241;BME280;11789;53.482;9.862;2022-07-05T03:09:40;102019.69;;;13.77;83.11
23241;BME280;11789;53.482;9.862;2022-07-05T03:12:06;102024.00;;;13.76;83.23
23241;BME280;11789;53.482;9.862;2022-07-05T03:14:31;102021.38;;;13.73;83.72
23241;BME280;11789;53.482;9.862;2022-07-05T03:16:57;102023.16;;;13.74;83.68
23241;BME280;11789;53.482;9.862;2022-07-05T03:19:22;102024.00;;;13.76;83.71
23241;BME280;11789;53.482;9.862;2022-07-05T03:21:48;102034.41;;;13.76;83.58
23241;BME280;11789;53.482;9.862;2022-07-05T03:24:13;102034.41;;;13.75;83.92
23241;BME280;11789;53.482;9.862;2022-07-05T03:26:39;102030.94;;;13.77;84.23
23241;BME280;11789;53.482;9.862;2022-07-05T03:29:04;102030.94;;;13.74;84.36
23241;BME280;11789;53.482;9.862;2022-07-05T03:31:30;102031.78;;;13.73;84.13
23241;BME280;11789;53.482;9.862;2022-07-05T03:33:55;102027.47;;;13.75;84.25
23241;BME280;11789;53.482;9.862;2022-07-05T03:36:22;102024.00;;;13.76;84.26
23241;BME280;11789;53.482;9.862;2022-07-05T03:38:47;102026.63;;;13.78;84.27
23241;BME280;11789;53.482;9.862;2022-07-05T03:41:13;102020.56;;;13.84;84.46
23241;BME280;11789;53.482;9.862;2022-07-05T03:43:38;102020.56;;;13.84;84.21
23241;BME280;11789;53.482;9.862;2022-07-05T03:46:03;102018.88;;;13.86;84.26
23241;BME280;11789;53.482;9.862;2022-07-05T03:48:29;102018.00;;;13.88;83.96
23241;BME280;11789;53.482;9.862;2022-07-05T03:50:55;102018.84;;;13.87;83.87
23241;BME280;11789;53.482;9.862;2022-07-05T03:53:20;102018.88;;;13.93;83.66
23241;BME280;11789;53.482;9.862;2022-07-05T03:55:45;102024.94;;;13.92;83.49
23241;BME280;11789;53.482;9.862;2022-07-05T03:58:11;102018.91;;;13.95;83.46
23241;BME280;11789;53.482;9.862;2022-07-05T04:00:36;102026.72;;;13.99;83.46
23241;BME280;11789;53.482;9.862;2022-07-05T04:03:02;102025.00;;;14.00;83.29
23241;BME280;11789;53.482;9.862;2022-07-05T04:05:27;102027.59;;;14.06;82.99
23241;BME280;11789;53.482;9.862;2022-07-05T04:07:55;102027.63;;;14.09;82.73
23241;BME280;11789;53.482;9.862;2022-07-05T04:10:21;102025.88;;;14.11;82.58
23241;BME280;11789;53.482;9.862;2022-07-05T04:12:47;102032.00;;;14.19;82.18
23241;BME280;11789;53.482;9.862;2022-07-05T04:15:13;102042.41;;;14.25;81.94
23241;BME280;11789;53.482;9.862;2022-07-05T04:17:46;102039.81;;;14.28;81.60
23241;BME280;11789;53.482;9.862;2022-07-05T04:20:11;102044.16;;;14.30;81.85
23241;BME280;11789;53.482;9.862;2022-07-05T04:22:37;102052.84;;;14.36;81.50
23241;BME280;11789;53.482;9.862;2022-07-05T04:25:03;102045.06;;;14.41;81.28
23241;BME280;11789;53.482;9.862;2022-07-05T04:27:51;102045.91;;;14.44;80.89
23241;BME280;11789;53.482;9.862;2022-07-05T04:30:19;102049.44;;;14.51;80.51
23241;BME280;11789;53.482;9.862;2022-07-05T04:32:45;102044.25;;;14.56;80.22
23241;BME280;11789;53.482;9.862;2022-07-05T04:35:11;102049.47;;;14.56;80.04
23241;BME280;11789;53.482;9.862;2022-07-05T04:37:37;102047.72;;;14.56;79.96
23241;BME280;11789;53.482;9.862;2022-07-05T04:40:04;102042.50;;;14.56;79.89
23241;BME280;11789;53.482;9.862;2022-07-05T04:42:30;102038.19;;;14.57;80.12
23241;BME280;11789;53.482;9.862;2022-07-05T04:44:55;102040.78;;;14.66;79.95
23241;BME280;11789;53.482;9.862;2022-07-05T04:47:21;102040.78;;;14.69;79.70
23241;BME280;11789;53.482;9.862;2022-07-05T04:49:46;102048.59;;;14.75;79.32
23241;BME280;11789;53.482;9.862;2022-07-05T04:52:11;102048.59;;;14.79;79.17
23241;BME280;11789;53.482;9.862;2022-07-05T04:54:37;102055.53;;;14.84;79.12
23241;BME280;11789;53.482;9.862;2022-07-05T04:57:03;102056.41;;;14.89;78.94
23241;BME280;11789;53.482;9.862;2022-07-05T04:59:28;102063.38;;;14.91;78.58
23241;BME280;11789;53.482;9.862;2022-07-05T05:01:54;102058.16;;;14.94;78.88
23241;BME280;11789;53.482;9.862;2022-07-05T05:04:19;102062.50;;;15.00;78.80
23241;BME280;11789;53.482;9.862;2022-07-05T05:06:45;102062.50;;;15.06;78.18
23241;BME280;11789;53.482;9.862;2022-07-05T05:09:13;102066.00;;;15.11;77.76
23241;BME280;11789;53.482;9.862;2022-07-05T05:11:39;102064.25;;;15.18;77.61
23241;BME280;11789;53.482;9.862;2022-07-05T05:14:04;102067.69;;;15.20;77.35
23241;BME280;11789;53.482;9.862;2022-07-05T05:16:30;102072.06;;;15.21;77.40
23241;BME280;11789;53.482;9.862;2022-07-05T05:18:55;102072.06;;;15.27;76.74
23241;BME280;11789;53.482;9.862;2022-07-05T05:21:21;102077.25;;;15.33;76.82
23241;BME280;11789;53.482;9.862;2022-07-05T05:23:46;102077.22;;;15.39;76.82
23241;BME280;11789;53.482;9.862;2022-07-05T05:26:11;102081.56;;;15.45;76.88
23241;BME280;11789;53.482;9.862;2022-07-05T05:28:40;102079.84;;;15.48;76.48
23241;BME280;11789;53.482;9.862;2022-07-05T05:31:06;102077.22;;;15.48;75.58
23241;BME280;11789;53.482;9.862;2022-07-05T05:33:32;102078.06;;;15.55;75.44
23241;BME280;11789;53.482;9.862;2022-07-05T05:35:57;102082.44;;;15.62;75.36
23241;BME280;11789;53.482;9.862;2022-07-05T05:38:23;102073.75;;;15.66;74.73
23241;BME280;11789;53.482;9.862;2022-07-05T05:40:48;102078.94;;;15.74;74.73
23241;BME280;11789;53.482;9.862;2022-07-05T05:43:14;102075.44;;;15.81;74.40
23241;BME280;11789;53.482;9.862;2022-07-05T05:45:41;102078.91;;;15.88;74.64
23241;BME280;11789;53.482;9.862;2022-07-05T05:48:07;102074.53;;;15.93;74.71
23241;BME280;11789;53.482;9.862;2022-07-05T05:50:34;102072.78;;;15.99;74.64
23241;BME280;11789;53.482;9.862;2022-07-05T05:53:01;102071.91;;;15.99;73.82
23241;BME280;11789;53.482;9.862;2022-07-05T05:55:28;102075.34;;;16.05;74.16
23241;BME280;11789;53.482;9.862;2022-07-05T05:57:54;102077.06;;;16.14;73.75
23241;BME280;11789;53.482;9.862;2022-07-05T06:00:21;102071.81;;;16.20;73.69
23241;BME280;11789;53.482;9.862;2022-07-05T06:02:48;102083.97;;;16.27;73.38
23241;BME280;11789;53.482;9.862;2022-07-05T06:05:15;102074.37;;;16.29;73.43
23241;BME280;11789;53.482;9.862;2022-07-05T06:07:51;102081.28;;;16.37;72.71
23241;BME280;11789;53.482;9.862;2022-07-05T06:10:19;102079.53;;;16.43;72.66
23241;BME280;11789;53.482;9.862;2022-07-05T06:12:49;102085.59;;;16.47;70.47
23241;BME280;11789;53.482;9.862;2022-07-05T06:15:15;102092.53;;;16.51;70.74
23241;BME280;11789;53.482;9.862;2022-07-05T06:17:40;102088.13;;;16.59;71.35
23241;BME280;11789;53.482;9.862;2022-07-05T06:20:07;102102.91;;;16.61;69.32
23241;BME280;11789;53.482;9.862;2022-07-05T06:22:33;102101.16;;;16.62;70.02
23241;BME280;11789;53.482;9.862;2022-07-05T06:24:59;102095.06;;;16.68;68.99
23241;BME280;11789;53.482;9.862;2022-07-05T06:27:25;102100.28;;;16.66;68.59
23241;BME280;11789;53.482;9.862;2022-07-05T06:29:51;102111.59;;;16.73;68.72
23241;BME280;11789;53.482;9.862;2022-07-05T06:32:19;102101.06;;;16.82;68.71
23241;BME280;11789;53.482;9.862;2022-07-05T06:34:44;102105.38;;;16.91;68.12
23241;BME280;11789;53.482;9.862;2022-07-05T06:37:10;102100.09;;;16.97;67.97
23241;BME280;11789;53.482;9.862;2022-07-05T06:39:35;102100.09;;;16.97;69.02
23241;BME280;11789;53.482;9.862;2022-07-05T06:42:02;102112.25;;;16.98;68.54
23241;BME280;11789;53.482;9.862;2022-07-05T06:44:27;102106.19;;;16.99;68.90
23241;BME280;11789;53.482;9.862;2022-07-05T06:46:53;102108.81;;;16.96;70.03
23241;BME280;11789;53.482;9.862;2022-07-05T06:49:18;102109.72;;;16.93;70.38
23241;BME280;11789;53.482;9.862;2022-07-05T06:51:44;102114.03;;;16.93;70.09
23241;BME280;11789;53.482;9.862;2022-07-05T06:54:09;102114.97;;;16.89;69.98
23241;BME280;11789;53.482;9.862;2022-07-05T06:56:35;102118.44;;;16.89;70.14
23241;BME280;11789;53.482;9.862;2022-07-05T06:59:00;102117.53;;;16.92;70.06
23241;BME280;11789;53.482;9.862;2022-07-05T07:01:25;102115.78;;;16.92;70.13
23241;BME280;11789;53.482;9.862;2022-07-05T07:03:51;102122.81;;;16.89;69.42
23241;BME280;11789;53.482;9.862;2022-07-05T07:06:17;102120.19;;;16.89;70.33
23241;BME280;11789;53.482;9.862;2022-07-05T07:08:42;102121.06;;;16.86;70.14
23241;BME280;11789;53.482;9.862;2022-07-05T07:11:27;102115.00;;;16.82;70.92
23241;BME280;11789;53.482;9.862;2022-07-05T07:13:52;102118.47;;;16.81;70.89
23241;BME280;11789;53.482;9.862;2022-07-05T07:16:19;102124.56;;;16.85;70.93
23241;BME280;11789;53.482;9.862;2022-07-05T07:18:45;102124.53;;;16.86;70.74
23241;BME280;11789;53.482;9.862;2022-07-05T07:21:10;102125.41;;;16.89;70.44
23241;BME280;11789;53.482;9.862;2022-07-05T07:23:35;102121.87;;;16.96;70.41
23241;BME280;11789;53.482;9.862;2022-07-05T07:26:02;102120.97;;;17.00;70.73
23241;BME280;11789;53.482;9.862;2022-07-05T07:28:27;102115.69;;;17.06;71.32
23241;BME280;11789;53.482;9.862;2022-07-05T07:30:53;102114.81;;;17.07;70.48
23241;BME280;11789;53.482;9.862;2022-07-05T07:33:19;102114.81;;;17.10;68.14
23241;BME280;11789;53.482;9.862;2022-07-05T07:35:44;102112.16;;;17.15;68.64
23241;BME280;11789;53.482;9.862;2022-07-05T07:38:10;102113.91;;;17.11;67.90
23241;BME280;11789;53.482;9.862;2022-07-05T07:40:35;102118.28;;;17.07;67.53
23241;BME280;11789;53.482;9.862;2022-07-05T07:43:01;102120.91;;;17.10;67.15
23241;BME280;11789;53.482;9.862;2022-07-05T07:45:26;102122.53;;;17.25;65.39
23241;BME280;11789;53.482;9.862;2022-07-05T07:47:56;102119.84;;;17.34;63.89
23241;BME280;11789;53.482;9.862;2022-07-05T07:50:22;102117.16;;;17.41;63.09
23241;BME280;11789;53.482;9.862;2022-07-05T07:52:47;102125.81;;;17.47;61.67
23241;BME280;11789;53.482;9.862;2022-07-05T07:55:13;102120.53;;;17.52;61.94
23241;BME280;11789;53.482;9.862;2022-07-05T07:57:40;102119.66;;;17.53;61.28
23241;BME280;11789;53.482;9.862;2022-07-05T08:00:05;102117.87;;;17.56;60.97
23241;BME280;11789;53.482;9.862;2022-07-05T08:02:31;102120.44;;;17.61;57.79
23241;BME280;11789;53.482;9.862;2022-07-05T08:04:57;102109.16;;;17.57;57.39
23241;BME280;11789;53.482;9.862;2022-07-05T08:07:23;102119.66;;;17.51;58.63
23241;BME280;11789;53.482;9.862;2022-07-05T08:09:49;102110.97;;;17.48;57.56
23241;BME280;11789;53.482;9.862;2022-07-05T08:12:15;102110.06;;;17.55;56.03
23241;BME280;11789;53.482;9.862;2022-07-05T08:14:41;102118.69;;;17.63;53.71
23241;BME280;11789;53.482;9.862;2022-07-05T08:17:07;102120.38;;;17.67;51.52
23241;BME280;11789;53.482;9.862;2022-07-05T08:19:36;102122.97;;;17.70;52.12
23241;BME280;11789;53.482;9.862;2022-07-05T08:22:20;102117.75;;;17.75;51.53
23241;BME280;11789;53.482;9.862;2022-07-05T08:24:46;102131.59;;;17.81;51.88
23241;BME280;11789;53.482;9.862;2022-07-05T08:27:12;102123.75;;;17.81;49.15
23241;BME280;11789;53.482;9.862;2022-07-05T08:29:38;102125.47;;;17.84;50.39
23241;BME280;11789;53.482;9.862;2022-07-05T08:32:04;102119.38;;;17.85;51.88
23241;BME280;11789;53.482;9.862;2022-07-05T08:34:30;102133.28;;;17.90;52.96
23241;BME280;11789;53.482;9.862;2022-07-05T08:36:55;102125.37;;;17.95;53.81
23241;BME280;11789;53.482;9.862;2022-07-05T08:39:21;102129.63;;;18.02;54.06
23241;BME280;11789;53.482;9.862;2022-07-05T08:41:49;102115.59;;;18.10;54.46
23241;BME280;11789;53.482;9.862;2022-07-05T08:44:21;102125.97;;;18.17;54.01
23241;BME280;11789;53.482;9.862;2022-07-05T08:46:49;102126.00;;;18.13;54.09
23241;BME280;11789;53.482;9.862;2022-07-05T08:49:24;102123.44;;;18.09;52.47
23241;BME280;11789;53.482;9.862;2022-07-05T08:51:51;102125.13;;;18.13;51.58
23241;BME280;11789;53.482;9.862;2022-07-05T08:54:17;102126.81;;;18.19;52.82
23241;BME280;11789;53.482;9.862;2022-07-05T08:56:44;102129.34;;;18.26;51.39
23241;BME280;11789;53.482;9.862;2022-07-05T08:59:13;102129.19;;;18.40;51.09
23241;BME280;11789;53.482;9.862;2022-07-05T09:01:39;102119.53;;;18.42;51.72
23241;BME280;11789;53.482;9.862;2022-07-05T09:04:07;102132.66;;;18.40;51.37
23241;BME280;11789;53.482;9.862;2022-07-05T09:06:38;102129.19;;;18.38;51.16
23241;BME280;11789;53.482;9.862;2022-07-05T09:09:04;102131.84;;;18.34;50.28
23241;BME280;11789;53.482;9.862;2022-07-05T09:11:39;102139.78;;;18.31;49.71
23241;BME280;11789;53.482;9.862;2022-07-05T09:14:20;102132.75;;;18.33;52.96
23241;BME280;11789;53.482;9.862;2022-07-05T09:16:48;102151.13;;;18.28;51.12
23241;BME280;11789;53.482;9.862;2022-07-05T09:19:14;102145.97;;;18.22;49.97
23241;BME280;11789;53.482;9.862;2022-07-05T09:21:40;102144.34;;;18.12;49.26
23241;BME280;11789;53.482;9.862;2022-07-05T09:24:08;102140.91;;;18.07;49.77
23241;BME280;11789;53.482;9.862;2022-07-05T09:26:45;102141.75;;;18.10;50.10
23241;BME280;11789;53.482;9.862;2022-07-05T09:29:13;102138.00;;;18.33;50.21
23241;BME280;11789;53.482;9.862;2022-07-05T09:31:43;102140.47;;;18.44;48.98
23241;BME280;11789;53.482;9.862;2022-07-05T09:34:15;102144.81;;;18.46;48.95
23241;BME280;11789;53.482;9.862;2022-07-05T09:36:57;102140.44;;;18.47;50.20
23241;BME280;11789;53.482;9.862;2022-07-05T09:42:21;102141.28;;;18.50;50.35
23241;BME280;11789;53.482;9.862;2022-07-05T09:44:53;102142.84;;;18.62;49.13
23241;BME280;11789;53.482;9.862;2022-07-05T09:47:28;102139.97;;;18.82;49.95
23241;BME280;11789;53.482;9.862;2022-07-05T09:49:58;102139.19;;;18.77;48.41
23241;BME280;11789;53.482;9.862;2022-07-05T09:52:37;102136.66;;;18.71;49.06
23241;BME280;11789;53.482;9.862;2022-07-05T09:55:10;102139.34;;;18.63;49.62
23241;BME280;11789;53.482;9.862;2022-07-05T09:57:41;102143.81;;;18.55;48.86
23241;BME280;11789;53.482;9.862;2022-07-05T10:00:07;102142.78;;;18.65;49.18
23241;BME280;11789;53.482;9.862;2022-07-05T10:02:40;102140.06;;;18.74;49.10
23241;BME280;11789;53.482;9.862;2022-07-05T10:10:38;102125.13;;;19.36;48.45
23241;BME280;11789;53.482;9.862;2022-07-05T10:13:04;102125.13;;;19.36;48.45
23241;BME280;11789;53.482;9.862;2022-07-05T10:15:35;102141.53;;;18.93;50.32
23241;BME280;11789;53.482;9.862;2022-07-05T10:18:11;102137.94;;;19.01;50.39
23241;BME280;11789;53.482;9.862;2022-07-05T10:23:15;102139.53;;;19.09;48.42
23241;BME280;11789;53.482;9.862;2022-07-05T10:25:43;102144.75;;;19.12;48.67
23241;BME280;11789;53.482;9.862;2022-07-05T10:28:10;102139.50;;;19.11;49.46
23241;BME280;11789;53.482;9.862;2022-07-05T10:30:36;102139.56;;;19.08;47.51
23241;BME280;11789;53.482;9.862;2022-07-05T10:33:03;102132.53;;;19.10;47.40
23241;BME280;11789;53.482;9.862;2022-07-05T10:35:29;102134.22;;;19.14;47.82
23241;BME280;11789;53.482;9.862;2022-07-05T10:37:56;102145.41;;;19.25;47.95
23241;BME280;11789;53.482;9.862;2022-07-05T10:40:23;102146.31;;;19.24;46.67
23241;BME280;11789;53.482;9.862;2022-07-05T10:42:59;102142.75;;;19.28;46.16
23241;BME280;11789;53.482;9.862;2022-07-05T10:53:16;102127.94;;;19.24;48.52
23241;BME280;11789;53.482;9.862;2022-07-05T10:55:51;102131.41;;;19.28;49.20
23241;BME280;11789;53.482;9.862;2022-07-05T11:00:42;102128.47;;;19.44;48.67
23241;BME280;11789;53.482;9.862;2022-07-05T11:03:37;102127.50;;;19.50;46.54
23241;BME280;11789;53.482;9.862;2022-07-05T11:06:04;102140.59;;;19.52;46.72
23241;BME280;11789;53.482;9.862;2022-07-05T11:11:28;102130.97;;;19.52;47.40
23241;BME280;11789;53.482;9.862;2022-07-05T11:13:55;102138.03;;;19.49;47.80
23241;BME280;11789;53.482;9.862;2022-07-05T11:16:22;102136.25;;;19.49;49.19
23241;BME280;11789;53.482;9.862;2022-07-05T11:18:54;102131.06;;;19.46;48.31
23241;BME280;11789;53.482;9.862;2022-07-05T11:21:29;102130.19;;;19.45;48.38
23241;BME280;11789;53.482;9.862;2022-07-05T11:24:21;102130.22;;;19.44;48.93
23241;BME280;11789;53.482;9.862;2022-07-05T11:26:48;102121.47;;;19.47;49.42
23241;BME280;11789;53.482;9.862;2022-07-05T11:32:17;102123.22;;;19.44;50.04
23241;BME280;11789;53.482;9.862;2022-07-05T11:34:47;102128.22;;;19.60;48.34
23241;BME280;11789;53.482;9.862;2022-07-05T11:37:20;102121.16;;;19.65;48.82
23241;BME280;11789;53.482;9.862;2022-07-05T11:42:37;102118.59;;;19.62;46.07
23241;BME280;11789;53.482;9.862;2022-07-05T11:45:08;102116.09;;;19.51;47.43
23241;BME280;11789;53.482;9.862;2022-07-05T11:47:35;102104.75;;;19.51;48.55
23241;BME280;11789;53.482;9.862;2022-07-05T11:50:00;102113.59;;;19.45;48.79
23241;BME280;11789;53.482;9.862;2022-07-05T11:52:27;102118.84;;;19.47;48.74
23241;BME280;11789;53.482;9.862;2022-07-05T11:54:53;102109.00;;;19.58;48.98
23241;BME280;11789;53.482;9.862;2022-07-05T11:57:19;102119.47;;;19.61;48.38
23241;BME280;11789;53.482;9.862;2022-07-05T11:59:46;102116.88;;;19.59;46.52
23241;BME280;11789;53.482;9.862;2022-07-05T12:09:54;102094.19;;;20.02;45.84
23241;BME280;11789;53.482;9.862;2022-07-05T12:12:38;102094.19;;;20.02;45.84
23241;BME280;11789;53.482;9.862;2022-07-05T12:17:39;102103.69;;;19.64;47.04
23241;BME280;11789;53.482;9.862;2022-07-05T12:20:06;102100.22;;;19.62;47.00
23241;BME280;11789;53.482;9.862;2022-07-05T12:22:36;102098.34;;;19.68;47.27
23241;BME280;11789;53.482;9.862;2022-07-05T12:25:04;102097.41;;;19.71;47.86
23241;BME280;11789;53.482;9.862;2022-07-05T12:27:32;102099.16;;;19.72;47.91
23241;BME280;11789;53.482;9.862;2022-07-05T12:29:59;102099.94;;;19.77;48.28
23241;BME280;11789;53.482;9.862;2022-07-05T12:32:24;102096.34;;;19.81;49.51
23241;BME280;11789;53.482;9.862;2022-07-05T12:34:50;102091.81;;;19.89;48.07
23241;BME280;11789;53.482;9.862;2022-07-05T12:37:20;102093.56;;;19.89;48.35
23241;BME280;11789;53.482;9.862;2022-07-05T12:39:47;102097.19;;;19.82;48.42
23241;BME280;11789;53.482;9.862;2022-07-05T12:42:30;102096.41;;;19.78;49.08
23241;BME280;11789;53.482;9.862;2022-07-05T12:45:14;102099.94;;;19.77;48.23
23241;BME280;11789;53.482;9.862;2022-07-05T12:47:51;102095.50;;;19.79;46.54
23241;BME280;11789;53.482;9.862;2022-07-05T12:50:22;102098.94;;;19.83;47.49
23241;BME280;11789;53.482;9.862;2022-07-05T12:53:01;102081.16;;;19.97;45.85
23241;BME280;11789;53.482;9.862;2022-07-05T12:55:36;102089.06;;;19.95;45.97
23241;BME280;11789;53.482;9.862;2022-07-05T12:58:20;102098.72;;;19.93;46.51
23241;BME280;11789;53.482;9.862;2022-07-05T13:00:46;102093.53;;;19.90;46.37
23241;BME280;11789;53.482;9.862;2022-07-05T13:03:11;102078.69;;;19.89;46.92
23241;BME280;11789;53.482;9.862;2022-07-05T13:05:37;102083.03;;;19.90;47.79
23241;BME280;11789;53.482;9.862;2022-07-05T13:08:03;102083.03;;;19.90;49.77
23241;BME280;11789;53.482;9.862;2022-07-05T13:10:29;102080.28;;;19.98;48.36
23241;BME280;11789;53.482;9.862;2022-07-05T13:12:57;102079.47;;;19.94;45.30
23241;BME280;11789;53.482;9.862;2022-07-05T13:15:23;102082.03;;;19.96;46.16
23241;BME280;11789;53.482;9.862;2022-07-05T13:17:50;102078.53;;;19.97;45.63
23241;BME280;11789;53.482;9.862;2022-07-05T13:20:19;102083.75;;;19.99;46.38
23241;BME280;11789;53.482;9.862;2022-07-05T13:22:46;102078.59;;;19.94;47.69
23241;BME280;11789;53.482;9.862;2022-07-05T13:25:12;102091.00;;;19.86;46.63
23241;BME280;11789;53.482;9.862;2022-07-05T13:27:38;102090.34;;;19.75;46.29
23241;BME280;11789;53.482;9.862;2022-07-05T13:30:04;102087.94;;;19.64;46.77
23241;BME280;11789;53.482;9.862;2022-07-05T13:32:30;102095.00;;;19.59;46.65